sensor_id;sensor_type;location;lat;lon;timestamp;P1;durP1;ratioP1;P2;durP2;ratioP2
24483;SDS011;12643;51.620;7.548;2022-07-21T00:01:19;10.48;;;9.35;;
24483;SDS011;12643;51.620;7.548;2022-07-21T00:03:46;10.43;;;8.80;;
24483;SDS011;12643;51.620;7.548;2022-07-21T00:06:14;10.00;;;8.50;;
24483;SDS011;12643;51.620;7.548;2022-07-21T00:08:43;12.48;;;9.82;;
24483;SDS011;12643;51.620;7.548;2022-07-21T00:11:12;15.25;;;9.88;;
24483;SDS011;12643;51.620;7.548;2022-07-21T00:13:39;10.50;;;9.27;;
24483;SDS011;12643;51.620;7.548;2022-07-21T00:16:07;10.05;;;9.05;;
24483;SDS011;12643;51.620;7.548;2022-07-21T00:18:35;13.90;;;9.80;;
24483;SDS011;12643;51.620;7.548;2022-07-21T00:21:03;13.93;;;9.18;;
24483;SDS011;12643;51.620;7.548;2022-07-21T00:23:31;12.65;;;9.75;;
24483;SDS011;12643;51.620;7.548;2022-07-21T00:26:00;10.15;;;9.15;;
24483;SDS011;12643;51.620;7.548;2022-07-21T00:28:28;10.15;;;9.13;;
24483;SDS011;12643;51.620;7.548;2022-07-21T00:30:56;9.82;;;8.82;;
24483;SDS011;12643;51.620;7.548;2022-07-21T00:33:24;12.43;;;9.52;;
24483;SDS011;12643;51.620;7.548;2022-07-21T00:35:51;11.95;;;10.50;;
24483;SDS011;12643;51.620;7.548;2022-07-21T00:38:19;10.50;;;9.40;;
24483;SDS011;12643;51.620;7.548;2022-07-21T00:40:47;13.10;;;10.23;;
24483;SDS011;12643;51.620;7.548;2022-07-21T00:43:16;11.30;;;10.18;;
24483;SDS011;12643;51.620;7.548;2022-07-21T00:45:45;15.60;;;10.57;;
24483;SDS011;12643;51.620;7.548;2022-07-21T00:48:13;11.25;;;10.13;;
24483;SDS011;12643;51.620;7.548;2022-07-21T00:50:45;12.18;;;10.88;;
24483;SDS011;12643;51.620;7.548;2022-07-21T00:53:13;13.73;;;10.02;;
24483;SDS011;12643;51.620;7.548;2022-07-21T00:55:41;13.77;;;12.23;;
24483;SDS011;12643;51.620;7.548;2022-07-21T00:58:11;12.93;;;10.63;;
24483;SDS011;12643;51.620;7.548;2022-07-21T01:00:41;12.43;;;11.20;;
24483;SDS011;12643;51.620;7.548;2022-07-21T01:03:08;13.63;;;11.70;;
24483;SDS011;12643;51.620;7.548;2022-07-21T01:05:36;16.25;;;12.10;;
24483;SDS011;12643;51.620;7.548;2022-07-21T01:08:05;16.25;;;11.57;;
24483;SDS011;12643;51.620;7.548;2022-07-21T01:10:33;11.82;;;10.55;;
24483;SDS011;12643;51.620;7.548;2022-07-21T01:13:01;12.05;;;10.80;;
24483;SDS011;12643;51.620;7.548;2022-07-21T01:15:29;11.15;;;9.98;;
24483;SDS011;12643;51.620;7.548;2022-07-21T01:17:58;8.70;;;7.90;;
24483;SDS011;12643;51.620;7.548;2022-07-21T01:20:26;10.98;;;8.85;;
24483;SDS011;12643;51.620;7.548;2022-07-21T01:22:59;10.15;;;7.55;;
24483;SDS011;12643;51.620;7.548;2022-07-21T01:25:26;11.57;;;8.48;;
24483;SDS011;12643;51.620;7.548;2022-07-21T01:27:54;9.32;;;8.32;;
24483;SDS011;12643;51.620;7.548;2022-07-21T01:30:22;8.73;;;7.82;;
24483;SDS011;12643;51.620;7.548;2022-07-21T01:32:50;9.98;;;9.02;;
24483;SDS011;12643;51.620;7.548;2022-07-21T01:35:18;8.35;;;7.47;;
24483;SDS011;12643;51.620;7.548;2022-07-21T01:37:46;11.25;;;9.52;;
24483;SDS011;12643;51.620;7.548;2022-07-21T01:40:16;11.07;;;8.98;;
24483;SDS011;12643;51.620;7.548;2022-07-21T01:43:02;14.23;;;11.57;;
24483;SDS011;12643;51.620;7.548;2022-07-21T01:45:31;13.10;;;11.70;;
24483;SDS011;12643;51.620;7.548;2022-07-21T01:47:59;17.40;;;12.52;;
24483;SDS011;12643;51.620;7.548;2022-07-21T01:50:26;12.85;;;11.45;;
24483;SDS011;12643;51.620;7.548;2022-07-21T01:52:54;15.35;;;13.80;;
24483;SDS011;12643;51.620;7.548;2022-07-21T01:55:24;15.57;;;13.93;;
24483;SDS011;12643;51.620;7.548;2022-07-21T02:00:21;17.58;;;15.32;;
24483;SDS011;12643;51.620;7.548;2022-07-21T02:02:49;16.67;;;14.88;;
24483;SDS011;12643;51.620;7.548;2022-07-21T02:05:17;17.65;;;15.75;;
24483;SDS011;12643;51.620;7.548;2022-07-21T02:07:45;15.85;;;14.32;;
24483;SDS011;12643;51.620;7.548;2022-07-21T02:10:13;15.70;;;13.52;;
24483;SDS011;12643;51.620;7.548;2022-07-21T02:12:42;18.13;;;15.02;;
24483;SDS011;12643;51.620;7.548;2022-07-21T02:15:10;14.98;;;12.88;;
24483;SDS011;12643;51.620;7.548;2022-07-21T02:17:38;18.45;;;15.05;;
24483;SDS011;12643;51.620;7.548;2022-07-21T02:20:06;19.85;;;17.75;;
24483;SDS011;12643;51.620;7.548;2022-07-21T02:22:35;19.90;;;17.67;;
24483;SDS011;12643;51.620;7.548;2022-07-21T02:25:02;22.73;;;18.60;;
24483;SDS011;12643;51.620;7.548;2022-07-21T02:27:30;19.50;;;17.23;;
24483;SDS011;12643;51.620;7.548;2022-07-21T02:29:59;22.00;;;14.60;;
24483;SDS011;12643;51.620;7.548;2022-07-21T02:32:27;15.25;;;13.65;;
24483;SDS011;12643;51.620;7.548;2022-07-21T02:34:55;20.67;;;14.80;;
24483;SDS011;12643;51.620;7.548;2022-07-21T02:37:23;15.75;;;13.65;;
24483;SDS011;12643;51.620;7.548;2022-07-21T02:39:52;14.50;;;12.88;;
24483;SDS011;12643;51.620;7.548;2022-07-21T02:42:19;12.95;;;11.57;;
24483;SDS011;12643;51.620;7.548;2022-07-21T02:44:47;15.43;;;12.90;;
24483;SDS011;12643;51.620;7.548;2022-07-21T02:47:17;17.60;;;13.95;;
24483;SDS011;12643;51.620;7.548;2022-07-21T02:49:44;16.95;;;12.27;;
24483;SDS011;12643;51.620;7.548;2022-07-21T02:52:13;12.30;;;10.98;;
24483;SDS011;12643;51.620;7.548;2022-07-21T02:54:41;11.98;;;10.43;;
24483;SDS011;12643;51.620;7.548;2022-07-21T02:57:08;14.35;;;10.90;;
24483;SDS011;12643;51.620;7.548;2022-07-21T02:59:36;14.82;;;11.35;;
24483;SDS011;12643;51.620;7.548;2022-07-21T03:02:03;12.95;;;11.13;;
24483;SDS011;12643;51.620;7.548;2022-07-21T03:04:32;14.35;;;10.05;;
24483;SDS011;12643;51.620;7.548;2022-07-21T03:07:00;13.27;;;10.70;;
24483;SDS011;12643;51.620;7.548;2022-07-21T03:09:27;15.70;;;10.80;;
24483;SDS011;12643;51.620;7.548;2022-07-21T03:11:55;11.27;;;9.95;;
24483;SDS011;12643;51.620;7.548;2022-07-21T03:14:23;15.38;;;10.73;;
24483;SDS011;12643;51.620;7.548;2022-07-21T03:16:51;11.43;;;9.48;;
24483;SDS011;12643;51.620;7.548;2022-07-21T03:19:18;13.77;;;10.95;;
24483;SDS011;12643;51.620;7.548;2022-07-21T03:21:47;9.93;;;8.80;;
24483;SDS011;12643;51.620;7.548;2022-07-21T03:24:15;11.52;;;9.60;;
24483;SDS011;12643;51.620;7.548;2022-07-21T03:26:42;11.50;;;8.95;;
24483;SDS011;12643;51.620;7.548;2022-07-21T03:29:10;12.20;;;9.55;;
24483;SDS011;12643;51.620;7.548;2022-07-21T03:31:38;13.52;;;9.40;;
24483;SDS011;12643;51.620;7.548;2022-07-21T03:34:06;9.05;;;8.13;;
24483;SDS011;12643;51.620;7.548;2022-07-21T03:36:33;11.95;;;9.13;;
24483;SDS011;12643;51.620;7.548;2022-07-21T03:39:02;11.73;;;8.65;;
24483;SDS011;12643;51.620;7.548;2022-07-21T03:41:29;13.18;;;9.07;;
24483;SDS011;12643;51.620;7.548;2022-07-21T03:43:57;11.80;;;9.13;;
24483;SDS011;12643;51.620;7.548;2022-07-21T03:46:24;8.63;;;7.80;;
24483;SDS011;12643;51.620;7.548;2022-07-21T03:48:52;10.65;;;8.07;;
24483;SDS011;12643;51.620;7.548;2022-07-21T03:51:19;9.52;;;7.88;;
24483;SDS011;12643;51.620;7.548;2022-07-21T03:53:47;12.68;;;8.55;;
24483;SDS011;12643;51.620;7.548;2022-07-21T03:56:16;11.30;;;8.88;;
24483;SDS011;12643;51.620;7.548;2022-07-21T03:58:43;8.75;;;7.85;;
24483;SDS011;12643;51.620;7.548;2022-07-21T04:01:11;9.23;;;7.35;;
24483;SDS011;12643;51.620;7.548;2022-07-21T04:03:38;11.27;;;8.27;;
24483;SDS011;12643;51.620;7.548;2022-07-21T04:06:06;10.65;;;8.40;;
24483;SDS011;12643;51.620;7.548;2022-07-21T04:08:35;8.05;;;6.90;;
24483;SDS011;12643;51.620;7.548;2022-07-21T04:11:03;12.27;;;7.30;;
24483;SDS011;12643;51.620;7.548;2022-07-21T04:13:33;9.07;;;7.50;;
24483;SDS011;12643;51.620;7.548;2022-07-21T04:16:00;10.20;;;7.65;;
24483;SDS011;12643;51.620;7.548;2022-07-21T04:18:28;10.48;;;8.18;;
24483;SDS011;12643;51.620;7.548;2022-07-21T04:20:55;7.93;;;7.13;;
24483;SDS011;12643;51.620;7.548;2022-07-21T04:23:23;9.25;;;7.43;;
24483;SDS011;12643;51.620;7.548;2022-07-21T04:25:50;11.30;;;6.85;;
24483;SDS011;12643;51.620;7.548;2022-07-21T04:28:18;9.95;;;7.50;;
24483;SDS011;12643;51.620;7.548;2022-07-21T04:30:47;8.07;;;7.25;;
24483;SDS011;12643;51.620;7.548;2022-07-21T04:33:15;11.50;;;7.93;;
24483;SDS011;12643;51.620;7.548;2022-07-21T04:35:42;14.02;;;8.50;;
24483;SDS011;12643;51.620;7.548;2022-07-21T04:38:11;8.93;;;7.60;;
24483;SDS011;12643;51.620;7.548;2022-07-21T04:40:39;9.65;;;7.57;;
24483;SDS011;12643;51.620;7.548;2022-07-21T04:43:06;7.90;;;6.80;;
24483;SDS011;12643;51.620;7.548;2022-07-21T04:45:34;11.40;;;7.70;;
24483;SDS011;12643;51.620;7.548;2022-07-21T04:48:04;8.80;;;6.78;;
24483;SDS011;12643;51.620;7.548;2022-07-21T04:50:32;11.07;;;7.47;;
24483;SDS011;12643;51.620;7.548;2022-07-21T04:52:59;8.70;;;7.13;;
24483;SDS011;12643;51.620;7.548;2022-07-21T04:55:27;7.95;;;7.15;;
24483;SDS011;12643;51.620;7.548;2022-07-21T04:57:55;8.55;;;7.65;;
24483;SDS011;12643;51.620;7.548;2022-07-21T05:00:24;8.55;;;7.75;;
24483;SDS011;12643;51.620;7.548;2022-07-21T05:02:53;8.52;;;7.18;;
24483;SDS011;12643;51.620;7.548;2022-07-21T05:05:22;8.27;;;7.35;;
24483;SDS011;12643;51.620;7.548;2022-07-21T05:07:50;8.57;;;7.10;;
24483;SDS011;12643;51.620;7.548;2022-07-21T05:10:17;9.00;;;7.97;;
24483;SDS011;12643;51.620;7.548;2022-07-21T05:12:47;10.15;;;7.63;;
24483;SDS011;12643;51.620;7.548;2022-07-21T05:15:15;11.15;;;8.15;;
24483;SDS011;12643;51.620;7.548;2022-07-21T05:17:43;10.82;;;8.70;;
24483;SDS011;12643;51.620;7.548;2022-07-21T05:20:11;11.10;;;8.13;;
24483;SDS011;12643;51.620;7.548;2022-07-21T05:22:40;9.27;;;7.90;;
24483;SDS011;12643;51.620;7.548;2022-07-21T05:25:08;8.55;;;7.20;;
24483;SDS011;12643;51.620;7.548;2022-07-21T05:27:36;8.38;;;7.57;;
24483;SDS011;12643;51.620;7.548;2022-07-21T05:30:03;9.10;;;8.20;;
24483;SDS011;12643;51.620;7.548;2022-07-21T05:32:32;8.55;;;7.63;;
24483;SDS011;12643;51.620;7.548;2022-07-21T05:35:00;9.90;;;8.55;;
24483;SDS011;12643;51.620;7.548;2022-07-21T05:37:33;11.48;;;9.68;;
24483;SDS011;12643;51.620;7.548;2022-07-21T05:40:03;12.32;;;9.55;;
24483;SDS011;12643;51.620;7.548;2022-07-21T05:42:31;10.40;;;9.13;;
24483;SDS011;12643;51.620;7.548;2022-07-21T05:45:00;12.98;;;10.80;;
24483;SDS011;12643;51.620;7.548;2022-07-21T05:47:29;15.45;;;11.65;;
24483;SDS011;12643;51.620;7.548;2022-07-21T05:49:57;13.88;;;12.10;;
24483;SDS011;12643;51.620;7.548;2022-07-21T05:52:25;13.23;;;11.82;;
24483;SDS011;12643;51.620;7.548;2022-07-21T05:54:53;18.55;;;14.23;;
24483;SDS011;12643;51.620;7.548;2022-07-21T05:57:22;21.27;;;14.10;;
24483;SDS011;12643;51.620;7.548;2022-07-21T05:59:50;15.18;;;12.35;;
24483;SDS011;12643;51.620;7.548;2022-07-21T06:02:18;16.05;;;13.20;;
24483;SDS011;12643;51.620;7.548;2022-07-21T06:04:46;15.32;;;13.77;;
24483;SDS011;12643;51.620;7.548;2022-07-21T06:07:14;15.73;;;14.02;;
24483;SDS011;12643;51.620;7.548;2022-07-21T06:09:42;14.98;;;13.13;;
24483;SDS011;12643;51.620;7.548;2022-07-21T06:12:09;15.80;;;13.95;;
24483;SDS011;12643;51.620;7.548;2022-07-21T06:14:38;16.17;;;14.57;;
24483;SDS011;12643;51.620;7.548;2022-07-21T06:17:06;16.45;;;12.82;;
24483;SDS011;12643;51.620;7.548;2022-07-21T06:19:33;18.77;;;14.02;;
24483;SDS011;12643;51.620;7.548;2022-07-21T06:22:02;16.15;;;13.60;;
24483;SDS011;12643;51.620;7.548;2022-07-21T06:24:31;17.02;;;14.35;;
24483;SDS011;12643;51.620;7.548;2022-07-21T06:26:58;16.00;;;14.32;;
24483;SDS011;12643;51.620;7.548;2022-07-21T06:29:28;15.00;;;13.10;;
24483;SDS011;12643;51.620;7.548;2022-07-21T06:31:58;16.70;;;14.07;;
24483;SDS011;12643;51.620;7.548;2022-07-21T06:34:25;14.80;;;13.25;;
24483;SDS011;12643;51.620;7.548;2022-07-21T06:36:53;18.58;;;13.35;;
24483;SDS011;12643;51.620;7.548;2022-07-21T06:39:21;14.43;;;12.93;;
24483;SDS011;12643;51.620;7.548;2022-07-21T06:41:48;13.50;;;11.93;;
24483;SDS011;12643;51.620;7.548;2022-07-21T06:44:15;15.32;;;13.73;;
24483;SDS011;12643;51.620;7.548;2022-07-21T06:46:43;14.73;;;13.23;;
24483;SDS011;12643;51.620;7.548;2022-07-21T06:49:12;14.75;;;12.75;;
24483;SDS011;12643;51.620;7.548;2022-07-21T06:51:41;19.50;;;12.27;;
24483;SDS011;12643;51.620;7.548;2022-07-21T06:54:08;14.05;;;12.18;;
24483;SDS011;12643;51.620;7.548;2022-07-21T06:56:38;17.55;;;11.93;;
24483;SDS011;12643;51.620;7.548;2022-07-21T06:59:06;12.18;;;10.90;;
24483;SDS011;12643;51.620;7.548;2022-07-21T07:01:34;14.07;;;12.25;;
24483;SDS011;12643;51.620;7.548;2022-07-21T07:04:04;13.63;;;12.13;;
24483;SDS011;12643;51.620;7.548;2022-07-21T07:06:35;11.98;;;10.77;;
24483;SDS011;12643;51.620;7.548;2022-07-21T07:09:04;17.95;;;12.75;;
24483;SDS011;12643;51.620;7.548;2022-07-21T07:11:31;12.32;;;11.15;;
24483;SDS011;12643;51.620;7.548;2022-07-21T07:13:59;14.82;;;12.05;;
24483;SDS011;12643;51.620;7.548;2022-07-21T07:16:27;13.52;;;12.23;;
24483;SDS011;12643;51.620;7.548;2022-07-21T07:18:55;18.45;;;12.38;;
24483;SDS011;12643;51.620;7.548;2022-07-21T07:21:22;12.65;;;11.35;;
24483;SDS011;12643;51.620;7.548;2022-07-21T07:23:51;13.18;;;11.05;;
24483;SDS011;12643;51.620;7.548;2022-07-21T07:26:19;14.15;;;11.07;;
24483;SDS011;12643;51.620;7.548;2022-07-21T07:28:46;13.30;;;11.98;;
24483;SDS011;12643;51.620;7.548;2022-07-21T07:31:14;14.10;;;11.80;;
24483;SDS011;12643;51.620;7.548;2022-07-21T07:33:43;13.10;;;10.73;;
24483;SDS011;12643;51.620;7.548;2022-07-21T07:36:10;13.80;;;12.30;;
24483;SDS011;12643;51.620;7.548;2022-07-21T07:38:38;14.45;;;11.77;;
24483;SDS011;12643;51.620;7.548;2022-07-21T07:41:09;18.33;;;11.40;;
24483;SDS011;12643;51.620;7.548;2022-07-21T07:43:37;13.98;;;11.15;;
24483;SDS011;12643;51.620;7.548;2022-07-21T07:46:05;12.70;;;10.95;;
24483;SDS011;12643;51.620;7.548;2022-07-21T07:48:35;11.32;;;9.85;;
24483;SDS011;12643;51.620;7.548;2022-07-21T07:51:03;10.13;;;9.13;;
24483;SDS011;12643;51.620;7.548;2022-07-21T07:53:31;12.05;;;9.52;;
24483;SDS011;12643;51.620;7.548;2022-07-21T07:55:58;10.70;;;9.60;;
24483;SDS011;12643;51.620;7.548;2022-07-21T07:58:29;16.65;;;11.90;;
24483;SDS011;12643;51.620;7.548;2022-07-21T08:00:56;12.73;;;11.27;;
24483;SDS011;12643;51.620;7.548;2022-07-21T08:03:24;15.98;;;11.23;;
24483;SDS011;12643;51.620;7.548;2022-07-21T08:05:57;13.38;;;9.75;;
24483;SDS011;12643;51.620;7.548;2022-07-21T08:08:28;13.23;;;9.20;;
24483;SDS011;12643;51.620;7.548;2022-07-21T08:10:57;11.07;;;9.35;;
24483;SDS011;12643;51.620;7.548;2022-07-21T08:13:24;10.65;;;9.55;;
24483;SDS011;12643;51.620;7.548;2022-07-21T08:15:55;10.60;;;9.15;;
24483;SDS011;12643;51.620;7.548;2022-07-21T08:18:23;10.15;;;9.13;;
24483;SDS011;12643;51.620;7.548;2022-07-21T08:20:50;11.73;;;8.57;;
24483;SDS011;12643;51.620;7.548;2022-07-21T08:23:20;9.73;;;8.80;;
24483;SDS011;12643;51.620;7.548;2022-07-21T08:25:48;19.42;;;10.27;;
24483;SDS011;12643;51.620;7.548;2022-07-21T08:28:15;10.43;;;9.43;;
24483;SDS011;12643;51.620;7.548;2022-07-21T08:30:43;10.95;;;9.25;;
24483;SDS011;12643;51.620;7.548;2022-07-21T08:33:12;11.75;;;9.23;;
24483;SDS011;12643;51.620;7.548;2022-07-21T08:35:39;9.30;;;8.32;;
24483;SDS011;12643;51.620;7.548;2022-07-21T08:38:09;10.35;;;8.85;;
24483;SDS011;12643;51.620;7.548;2022-07-21T08:40:40;10.50;;;9.38;;
24483;SDS011;12643;51.620;7.548;2022-07-21T08:43:09;9.10;;;7.45;;
24483;SDS011;12643;51.620;7.548;2022-07-21T08:45:38;10.32;;;7.40;;
24483;SDS011;12643;51.620;7.548;2022-07-21T08:48:06;10.20;;;6.82;;
24483;SDS011;12643;51.620;7.548;2022-07-21T08:50:36;10.88;;;7.53;;
24483;SDS011;12643;51.620;7.548;2022-07-21T08:53:05;8.50;;;6.75;;
24483;SDS011;12643;51.620;7.548;2022-07-21T08:55:33;9.48;;;6.97;;
24483;SDS011;12643;51.620;7.548;2022-07-21T08:58:03;10.73;;;7.82;;
24483;SDS011;12643;51.620;7.548;2022-07-21T09:00:34;10.70;;;7.27;;
24483;SDS011;12643;51.620;7.548;2022-07-21T09:03:10;12.40;;;8.02;;
24483;SDS011;12643;51.620;7.548;2022-07-21T09:05:43;9.32;;;6.90;;
24483;SDS011;12643;51.620;7.548;2022-07-21T09:08:28;10.27;;;8.15;;
24483;SDS011;12643;51.620;7.548;2022-07-21T09:13:44;10.45;;;8.75;;
24483;SDS011;12643;51.620;7.548;2022-07-21T09:16:25;8.70;;;7.47;;
24483;SDS011;12643;51.620;7.548;2022-07-21T09:19:01;10.43;;;8.13;;
24483;SDS011;12643;51.620;7.548;2022-07-21T09:21:31;11.80;;;8.13;;
24483;SDS011;12643;51.620;7.548;2022-07-21T09:24:16;10.05;;;6.53;;
24483;SDS011;12643;51.620;7.548;2022-07-21T09:26:59;9.07;;;6.28;;
24483;SDS011;12643;51.620;7.548;2022-07-21T09:29:44;7.97;;;6.20;;
24483;SDS011;12643;51.620;7.548;2022-07-21T09:32:13;8.77;;;6.57;;
24483;SDS011;12643;51.620;7.548;2022-07-21T09:34:50;9.38;;;6.15;;
24483;SDS011;12643;51.620;7.548;2022-07-21T09:37:23;8.18;;;5.80;;
24483;SDS011;12643;51.620;7.548;2022-07-21T09:39:51;10.18;;;6.47;;
24483;SDS011;12643;51.620;7.548;2022-07-21T09:42:22;9.60;;;6.20;;
24483;SDS011;12643;51.620;7.548;2022-07-21T09:44:51;7.13;;;5.53;;
24483;SDS011;12643;51.620;7.548;2022-07-21T09:47:23;9.73;;;5.35;;
24483;SDS011;12643;51.620;7.548;2022-07-21T09:49:51;7.47;;;5.65;;
24483;SDS011;12643;51.620;7.548;2022-07-21T09:52:26;7.25;;;6.03;;
24483;SDS011;12643;51.620;7.548;2022-07-21T09:54:56;7.07;;;5.55;;
24483;SDS011;12643;51.620;7.548;2022-07-21T09:57:26;8.55;;;5.50;;
24483;SDS011;12643;51.620;7.548;2022-07-21T09:59:55;10.63;;;5.97;;
24483;SDS011;12643;51.620;7.548;2022-07-21T10:02:28;13.20;;;6.30;;
24483;SDS011;12643;51.620;7.548;2022-07-21T10:04:59;9.57;;;5.90;;
24483;SDS011;12643;51.620;7.548;2022-07-21T10:07:31;7.07;;;4.90;;
24483;SDS011;12643;51.620;7.548;2022-07-21T10:09:59;7.55;;;5.55;;
24483;SDS011;12643;51.620;7.548;2022-07-21T10:12:27;9.65;;;5.57;;
24483;SDS011;12643;51.620;7.548;2022-07-21T10:14:54;8.90;;;5.72;;
24483;SDS011;12643;51.620;7.548;2022-07-21T10:17:22;7.05;;;5.53;;
24483;SDS011;12643;51.620;7.548;2022-07-21T10:19:54;8.10;;;5.28;;
24483;SDS011;12643;51.620;7.548;2022-07-21T10:22:34;6.00;;;5.40;;
24483;SDS011;12643;51.620;7.548;2022-07-21T10:25:10;7.10;;;5.03;;
24483;SDS011;12643;51.620;7.548;2022-07-21T10:27:38;7.95;;;5.22;;
24483;SDS011;12643;51.620;7.548;2022-07-21T10:30:24;6.63;;;4.60;;
24483;SDS011;12643;51.620;7.548;2022-07-21T10:33:04;8.27;;;5.53;;
24483;SDS011;12643;51.620;7.548;2022-07-21T10:35:32;6.00;;;5.32;;
24483;SDS011;12643;51.620;7.548;2022-07-21T10:38:01;7.13;;;4.93;;
24483;SDS011;12643;51.620;7.548;2022-07-21T10:40:38;6.40;;;4.72;;
24483;SDS011;12643;51.620;7.548;2022-07-21T10:49:02;9.07;;;4.85;;
24483;SDS011;12643;51.620;7.548;2022-07-21T10:51:32;8.73;;;5.05;;
24483;SDS011;12643;51.620;7.548;2022-07-21T10:54:21;6.80;;;4.93;;
24483;SDS011;12643;51.620;7.548;2022-07-21T11:02:47;9.48;;;5.15;;
24483;SDS011;12643;51.620;7.548;2022-07-21T11:05:16;8.57;;;4.93;;
24483;SDS011;12643;51.620;7.548;2022-07-21T11:10:45;7.22;;;4.90;;
24483;SDS011;12643;51.620;7.548;2022-07-21T11:13:14;4.90;;;4.40;;
24483;SDS011;12643;51.620;7.548;2022-07-21T11:15:43;10.02;;;6.50;;
24483;SDS011;12643;51.620;7.548;2022-07-21T11:18:16;7.95;;;5.40;;
24483;SDS011;12643;51.620;7.548;2022-07-21T11:20:44;7.85;;;6.20;;
24483;SDS011;12643;51.620;7.548;2022-07-21T11:23:35;8.02;;;5.57;;
24483;SDS011;12643;51.620;7.548;2022-07-21T11:26:05;9.38;;;6.03;;
24483;SDS011;12643;51.620;7.548;2022-07-21T11:28:33;8.68;;;6.43;;
24483;SDS011;12643;51.620;7.548;2022-07-21T11:31:11;6.13;;;5.50;;
24483;SDS011;12643;51.620;7.548;2022-07-21T11:33:41;7.78;;;5.65;;
24483;SDS011;12643;51.620;7.548;2022-07-21T11:36:21;9.13;;;5.77;;
24483;SDS011;12643;51.620;7.548;2022-07-21T11:38:59;7.80;;;5.88;;
24483;SDS011;12643;51.620;7.548;2022-07-21T11:41:30;9.93;;;5.93;;
24483;SDS011;12643;51.620;7.548;2022-07-21T11:43:58;9.68;;;5.90;;
24483;SDS011;12643;51.620;7.548;2022-07-21T11:46:26;5.68;;;5.03;;
24483;SDS011;12643;51.620;7.548;2022-07-21T11:49:00;10.02;;;5.43;;
24483;SDS011;12643;51.620;7.548;2022-07-21T11:51:29;9.02;;;5.50;;
24483;SDS011;12643;51.620;7.548;2022-07-21T11:53:56;11.50;;;6.30;;
24483;SDS011;12643;51.620;7.548;2022-07-21T11:56:23;9.52;;;6.22;;
24483;SDS011;12643;51.620;7.548;2022-07-21T11:58:58;8.52;;;6.40;;
24483;SDS011;12643;51.620;7.548;2022-07-21T12:01:47;10.38;;;6.43;;
24483;SDS011;12643;51.620;7.548;2022-07-21T12:04:25;9.23;;;6.25;;
24483;SDS011;12643;51.620;7.548;2022-07-21T12:06:54;13.93;;;7.05;;
24483;SDS011;12643;51.620;7.548;2022-07-21T12:09:22;12.32;;;7.05;;
24483;SDS011;12643;51.620;7.548;2022-07-21T12:11:50;12.60;;;6.43;;
24483;SDS011;12643;51.620;7.548;2022-07-21T12:14:19;9.90;;;7.68;;
24483;SDS011;12643;51.620;7.548;2022-07-21T12:16:48;8.80;;;6.60;;
24483;SDS011;12643;51.620;7.548;2022-07-21T12:19:16;9.18;;;7.30;;
24483;SDS011;12643;51.620;7.548;2022-07-21T12:21:45;13.52;;;7.88;;
24483;SDS011;12643;51.620;7.548;2022-07-21T12:24:15;13.50;;;8.93;;
24483;SDS011;12643;51.620;7.548;2022-07-21T12:26:46;11.55;;;7.68;;
24483;SDS011;12643;51.620;7.548;2022-07-21T12:29:25;10.43;;;7.18;;
24483;SDS011;12643;51.620;7.548;2022-07-21T12:31:53;9.05;;;7.20;;
24483;SDS011;12643;51.620;7.548;2022-07-21T12:34:21;8.75;;;6.35;;
24483;SDS011;12643;51.620;7.548;2022-07-21T12:36:50;9.75;;;7.50;;
24483;SDS011;12643;51.620;7.548;2022-07-21T12:39:18;8.02;;;6.65;;
24483;SDS011;12643;51.620;7.548;2022-07-21T12:42:06;10.52;;;6.95;;
24483;SDS011;12643;51.620;7.548;2022-07-21T12:44:37;8.13;;;6.57;;
24483;SDS011;12643;51.620;7.548;2022-07-21T12:47:15;8.57;;;7.75;;
24483;SDS011;12643;51.620;7.548;2022-07-21T12:49:54;11.70;;;7.60;;
24483;SDS011;12643;51.620;7.548;2022-07-21T12:52:23;10.30;;;7.30;;
24483;SDS011;12643;51.620;7.548;2022-07-21T12:54:51;10.30;;;7.88;;
24483;SDS011;12643;51.620;7.548;2022-07-21T12:57:19;8.32;;;7.43;;
24483;SDS011;12643;51.620;7.548;2022-07-21T12:59:48;12.68;;;7.88;;
24483;SDS011;12643;51.620;7.548;2022-07-21T13:02:15;11.32;;;7.32;;
24483;SDS011;12643;51.620;7.548;2022-07-21T13:04:43;9.73;;;7.72;;
24483;SDS011;12643;51.620;7.548;2022-07-21T13:07:10;10.10;;;7.75;;
24483;SDS011;12643;51.620;7.548;2022-07-21T13:09:38;12.05;;;8.25;;
24483;SDS011;12643;51.620;7.548;2022-07-21T13:12:06;8.18;;;7.18;;
24483;SDS011;12643;51.620;7.548;2022-07-21T13:14:33;12.65;;;8.13;;
24483;SDS011;12643;51.620;7.548;2022-07-21T13:17:02;8.77;;;7.80;;
24483;SDS011;12643;51.620;7.548;2022-07-21T13:19:30;8.32;;;6.82;;
24483;SDS011;12643;51.620;7.548;2022-07-21T13:21:57;9.02;;;7.93;;
24483;SDS011;12643;51.620;7.548;2022-07-21T13:24:25;11.38;;;7.57;;
24483;SDS011;12643;51.620;7.548;2022-07-21T13:26:52;10.68;;;6.93;;
24483;SDS011;12643;51.620;7.548;2022-07-21T13:29:20;7.75;;;5.95;;
24483;SDS011;12643;51.620;7.548;2022-07-21T13:31:47;7.68;;;6.50;;
24483;SDS011;12643;51.620;7.548;2022-07-21T13:34:16;7.80;;;7.00;;
24483;SDS011;12643;51.620;7.548;2022-07-21T13:36:44;7.13;;;6.20;;
24483;SDS011;12643;51.620;7.548;2022-07-21T13:39:11;7.55;;;5.50;;
24483;SDS011;12643;51.620;7.548;2022-07-21T13:41:39;7.68;;;6.20;;
24483;SDS011;12643;51.620;7.548;2022-07-21T13:44:07;5.97;;;5.35;;
24483;SDS011;12643;51.620;7.548;2022-07-21T13:46:34;6.15;;;5.65;;
24483;SDS011;12643;51.620;7.548;2022-07-21T13:49:02;5.78;;;4.93;;
24483;SDS011;12643;51.620;7.548;2022-07-21T13:51:31;5.50;;;5.00;;
24483;SDS011;12643;51.620;7.548;2022-07-21T13:53:58;5.75;;;5.13;;
24483;SDS011;12643;51.620;7.548;2022-07-21T13:56:26;6.57;;;5.18;;
24483;SDS011;12643;51.620;7.548;2022-07-21T13:58:53;5.00;;;4.50;;
24483;SDS011;12643;51.620;7.548;2022-07-21T14:01:22;6.30;;;4.65;;
24483;SDS011;12643;51.620;7.548;2022-07-21T14:03:50;7.53;;;5.18;;
24483;SDS011;12643;51.620;7.548;2022-07-21T14:06:17;4.75;;;4.20;;
24483;SDS011;12643;51.620;7.548;2022-07-21T14:08:46;4.25;;;3.85;;
24483;SDS011;12643;51.620;7.548;2022-07-21T14:11:14;5.13;;;4.72;;
24483;SDS011;12643;51.620;7.548;2022-07-21T14:13:42;5.15;;;3.85;;
24483;SDS011;12643;51.620;7.548;2022-07-21T14:16:10;5.22;;;4.00;;
24483;SDS011;12643;51.620;7.548;2022-07-21T14:18:37;4.32;;;3.92;;
24483;SDS011;12643;51.620;7.548;2022-07-21T14:21:05;5.22;;;4.47;;
24483;SDS011;12643;51.620;7.548;2022-07-21T14:23:32;5.72;;;4.53;;
24483;SDS011;12643;51.620;7.548;2022-07-21T14:26:02;4.95;;;3.55;;
24483;SDS011;12643;51.620;7.548;2022-07-21T14:28:30;5.95;;;5.38;;
24483;SDS011;12643;51.620;7.548;2022-07-21T14:30:57;6.43;;;4.47;;
24483;SDS011;12643;51.620;7.548;2022-07-21T14:33:25;5.45;;;4.57;;
24483;SDS011;12643;51.620;7.548;2022-07-21T14:35:54;4.65;;;4.13;;
24483;SDS011;12643;51.620;7.548;2022-07-21T14:38:21;5.28;;;4.70;;
24483;SDS011;12643;51.620;7.548;2022-07-21T14:40:49;6.28;;;5.40;;
24483;SDS011;12643;51.620;7.548;2022-07-21T14:43:18;8.35;;;5.95;;
24483;SDS011;12643;51.620;7.548;2022-07-21T14:45:45;8.73;;;7.70;;
24483;SDS011;12643;51.620;7.548;2022-07-21T14:48:13;8.68;;;7.78;;
24483;SDS011;12643;51.620;7.548;2022-07-21T14:50:40;11.30;;;8.68;;
24483;SDS011;12643;51.620;7.548;2022-07-21T14:53:08;10.13;;;8.32;;
24483;SDS011;12643;51.620;7.548;2022-07-21T14:55:36;12.82;;;10.88;;
24483;SDS011;12643;51.620;7.548;2022-07-21T14:58:03;11.23;;;10.13;;
24483;SDS011;12643;51.620;7.548;2022-07-21T15:00:32;12.27;;;10.95;;
24483;SDS011;12643;51.620;7.548;2022-07-21T15:03:00;12.30;;;10.32;;
24483;SDS011;12643;51.620;7.548;2022-07-21T15:05:27;11.18;;;10.07;;
24483;SDS011;12643;51.620;7.548;2022-07-21T15:07:55;12.00;;;10.80;;